Weather History for KTMK - February, 2014

Change the Weather History Date:

Wednesday, February 5, 2014

  Actual Average (KMMV) Record (KMMV)
Temperature  
Mean Temperature 30 °F 42 °F  
Max Temperature 33 °F 49 °F 62 °F (1961)
Min Temperature 26 °F 35 °F 9 °F (1989)
Degree Days  
Heating Degree Days 36 23  
Month to date heating degree days 115  
Since 1 July heating degree days 2870  
Cooling Degree Days 0 0  
Month to date cooling degree days 0  
Year to date cooling degree days 0  
Moisture  
Dew Point 11 °F    
Average Humidity 46    
Maximum Humidity 60    
Minimum Humidity 37    
Precipitation  
Precipitation 0.00 in 0.20 in 1.23 in (1940)
Month to date precipitation 1.03  
Year to date precipitation 7.13  
Sea Level Pressure  
Sea Level Pressure 30.29 in    
Wind  
Wind Speed 16 mph (ENE)    
Max Wind Speed 22 mph    
Max Gust Speed 33 mph    
Visibility 10 miles    
Events      
T = Trace of Precipitation, MM = Missing Value Source: NWS Daily Summary

Daily Weather History Graph

Daily Weather History Graph

Search for Another Location

Airport or City:

Trip Planner

Search our weather history database for the weather conditions in past years. The results will help you decide how hot, cold, wet, or windy it might be!

Date:

Astronomy

Feb. 05, 2014 Rise Set
Actual Time 8:30 AM MST 6:28 PM MST
Civil Twilight 7:59 AM MST 6:59 PM MST
Nautical Twilight 7:24 AM MST 7:34 PM MST
Astronomical Twilight 6:50 AM MST 8:09 PM MST
Moon 11:28 AM MST (2/5) 12:46 AM MST (2/5)
Length of Visible Light 10h 59m
Length of Day
9h 57m
Waxing Crescent, 40% of the Moon is Illuminated
Feb 5
Waxing Crescent
Feb 6
First Quarter
Feb 14
Full
Feb 22
Last Quarter
Mar 1
New

Hourly Weather History & Observations

Time (MST) Temp. Windchill Dew Point Humidity Pressure Visibility Wind Dir Wind Speed Gust Speed Precip Events Conditions
12:15 AM 32.0 °F 21.6 °F 19.4 °F 60% 30.31 in 10.0 mi East 15.0 mph 19.6 mph N/A   Clear
12:35 AM 32.0 °F 23.0 °F 19.4 °F 60% 30.31 in 10.0 mi ENE 11.5 mph 20.7 mph N/A   Clear
12:55 AM 32.0 °F 21.6 °F 17.6 °F 55% 30.32 in 10.0 mi ENE 15.0 mph 23.0 mph N/A   Clear
1:15 AM 32.0 °F 21.2 °F 17.6 °F 55% 30.32 in 10.0 mi East 16.1 mph 23.0 mph N/A   Clear
1:35 AM 32.0 °F 20.8 °F 17.6 °F 55% 30.31 in 10.0 mi East 17.3 mph 25.3 mph N/A   Clear
1:55 AM 32.0 °F 21.6 °F 17.6 °F 55% 30.31 in 10.0 mi ENE 15.0 mph 23.0 mph N/A   Clear
2:15 AM 32.0 °F 22.1 °F 17.6 °F 55% 30.30 in 10.0 mi ENE 13.8 mph 23.0 mph N/A   Clear
2:35 AM 30.2 °F 19.3 °F 17.6 °F 60% 30.31 in 10.0 mi ENE 15.0 mph 20.7 mph N/A   Clear
2:55 AM 30.2 °F 18.9 °F 17.6 °F 60% 30.31 in 10.0 mi ENE 16.1 mph - N/A   Clear
3:15 AM 30.2 °F 19.3 °F 15.8 °F 55% 30.32 in 10.0 mi ENE 15.0 mph 21.9 mph N/A   Clear
3:35 AM 30.2 °F 20.2 °F 17.6 °F 60% 30.32 in 10.0 mi NE 12.7 mph - N/A   Clear
3:55 AM 30.2 °F 19.3 °F 15.8 °F 55% 30.32 in 10.0 mi NE 15.0 mph - N/A   Clear
4:15 AM 30.2 °F 21.3 °F 15.8 °F 55% 30.32 in 10.0 mi ENE 10.4 mph 18.4 mph N/A   Clear
4:35 AM 28.4 °F 17.0 °F 15.8 °F 59% 30.33 in 10.0 mi NE 15.0 mph 20.7 mph N/A   Clear
4:55 AM 28.4 °F 16.2 °F 14.0 °F 55% 30.33 in 10.0 mi NE 17.3 mph 21.9 mph N/A   Clear
5:15 AM 28.4 °F 17.0 °F 14.0 °F 55% 30.33 in 10.0 mi ENE 15.0 mph 21.9 mph N/A   Clear
5:35 AM 28.4 °F 17.5 °F 14.0 °F 55% 30.33 in 10.0 mi ENE 13.8 mph 20.7 mph N/A   Clear
5:55 AM 28.4 °F 17.5 °F 14.0 °F 55% 30.34 in 10.0 mi ENE 13.8 mph 20.7 mph N/A   Clear
6:15 AM 28.4 °F 18.0 °F 14.0 °F 55% 30.34 in 10.0 mi ENE 12.7 mph 19.6 mph N/A   Clear
6:35 AM 28.4 °F 18.5 °F 14.0 °F 55% 30.34 in 10.0 mi ENE 11.5 mph 19.6 mph N/A   Clear
6:55 AM 28.4 °F 16.2 °F 14.0 °F 55% 30.34 in 10.0 mi ENE 17.3 mph 23.0 mph N/A   Clear
7:15 AM 28.4 °F 15.1 °F 12.2 °F 51% 30.34 in 10.0 mi ENE 20.7 mph 25.3 mph N/A   Clear
7:35 AM 28.4 °F 15.4 °F 12.2 °F 51% 30.33 in 10.0 mi ENE 19.6 mph 27.6 mph N/A   Clear
7:55 AM 28.4 °F 17.5 °F 12.2 °F 51% 30.34 in 10.0 mi ENE 13.8 mph 26.5 mph N/A   Clear
8:15 AM 28.4 °F 16.6 °F 10.4 °F 47% 30.34 in 10.0 mi ENE 16.1 mph 25.3 mph N/A   Clear
8:35 AM 28.4 °F 15.8 °F 10.4 °F 47% 30.33 in 10.0 mi ENE 18.4 mph 25.3 mph N/A   Clear
8:55 AM 28.4 °F 17.0 °F 10.4 °F 47% 30.34 in 10.0 mi ENE 15.0 mph 23.0 mph N/A   Clear
9:35 AM 28.4 °F 17.0 °F 10.4 °F 47% 30.35 in 10.0 mi ENE 15.0 mph 23.0 mph N/A   Clear
9:55 AM 28.4 °F 18.0 °F 10.4 °F 47% 30.35 in 10.0 mi ENE 12.7 mph 20.7 mph N/A   Clear
10:15 AM 28.4 °F 18.0 °F 10.4 °F 47% 30.35 in 10.0 mi ENE 12.7 mph 20.7 mph N/A   Clear
10:35 AM 30.2 °F 19.8 °F 10.4 °F 44% 30.35 in 10.0 mi ENE 13.8 mph 23.0 mph N/A   Clear
10:55 AM 30.2 °F 20.2 °F 10.4 °F 44% 30.35 in 10.0 mi ENE 12.7 mph 24.2 mph N/A   Clear
11:15 AM 30.2 °F 18.9 °F 10.4 °F 44% 30.35 in 10.0 mi ENE 16.1 mph 27.6 mph N/A   Clear
11:35 AM 30.2 °F 19.3 °F 10.4 °F 44% 30.34 in 10.0 mi ENE 15.0 mph 24.2 mph N/A   Clear
11:55 AM 32.0 °F 23.6 °F 10.4 °F 41% 30.34 in 10.0 mi ENE 10.4 mph 18.4 mph N/A   Clear
12:15 PM 32.0 °F 21.6 °F 10.4 °F 41% 30.33 in 10.0 mi NE 15.0 mph 20.7 mph N/A   Clear
12:35 PM 32.0 °F 22.5 °F 12.2 °F 44% 30.33 in 10.0 mi ENE 12.7 mph 20.7 mph N/A   Clear
12:55 PM 32.0 °F 20.5 °F 12.2 °F 44% 30.33 in 10.0 mi NE 18.4 mph 23.0 mph N/A   Clear
1:15 PM 32.0 °F 20.5 °F 12.2 °F 44% 30.31 in 10.0 mi ENE 18.4 mph 25.3 mph N/A   Clear
1:35 PM 33.8 °F 22.8 °F 12.2 °F 41% 30.31 in 10.0 mi NE 18.4 mph 24.2 mph N/A   Clear
1:55 PM 33.8 °F 22.8 °F 12.2 °F 41% 30.30 in 10.0 mi ENE 18.4 mph 24.2 mph N/A   Clear
2:15 PM 33.8 °F 24.3 °F 12.2 °F 41% 30.30 in 10.0 mi ENE 13.8 mph 23.0 mph N/A   Clear
2:35 PM 33.8 °F 22.5 °F 12.2 °F 41% 30.28 in 10.0 mi NE 19.6 mph 24.2 mph N/A   Clear
2:55 PM 33.8 °F 23.2 °F 12.2 °F 41% 30.27 in 10.0 mi ENE 17.3 mph 27.6 mph N/A   Clear
3:15 PM 33.8 °F 22.8 °F 12.2 °F 41% 30.27 in 10.0 mi NE 18.4 mph 26.5 mph N/A   Clear
3:35 PM 33.8 °F 22.8 °F 10.4 °F 38% 30.26 in 10.0 mi ENE 18.4 mph 24.2 mph N/A   Clear
3:55 PM 33.8 °F 23.5 °F 12.2 °F 41% 30.26 in 10.0 mi ENE 16.1 mph 24.2 mph N/A   Clear
4:15 PM 33.8 °F 22.5 °F 10.4 °F 38% 30.26 in 10.0 mi ENE 19.6 mph 28.8 mph N/A   Clear
4:35 PM 32.0 °F 20.5 °F 10.4 °F 41% 30.26 in 10.0 mi ENE 18.4 mph 25.3 mph N/A   Clear
4:55 PM 32.0 °F 21.6 °F 10.4 °F 41% 30.25 in 10.0 mi ENE 15.0 mph 27.6 mph N/A   Clear
5:15 PM 32.0 °F 20.1 °F 10.4 °F 41% 30.25 in 10.0 mi ENE 19.6 mph 26.5 mph N/A   Clear
5:35 PM 32.0 °F 20.5 °F 10.4 °F 41% 30.25 in 10.0 mi ENE 18.4 mph 26.5 mph N/A   Clear
5:55 PM 32.0 °F 20.5 °F 8.6 °F 38% 30.25 in 10.0 mi ENE 18.4 mph 27.6 mph N/A   Clear
6:15 PM 32.0 °F 20.8 °F 8.6 °F 38% 30.24 in 10.0 mi ENE 17.3 mph 25.3 mph N/A   Clear
6:35 PM 30.2 °F 18.5 °F 8.6 °F 40% 30.24 in 10.0 mi ENE 17.3 mph 23.0 mph N/A   Clear
6:55 PM 30.2 °F 18.1 °F 8.6 °F 40% 30.23 in 10.0 mi ENE 18.4 mph 24.2 mph N/A   Clear
7:15 PM 28.4 °F 15.4 °F 8.6 °F 43% 30.24 in 10.0 mi ENE 19.6 mph 28.8 mph N/A   Clear
7:35 PM 28.4 °F 14.7 °F 6.8 °F 40% 30.23 in 10.0 mi ENE 21.9 mph 28.8 mph N/A   Clear
7:55 PM 28.4 °F 16.6 °F 6.8 °F 40% 30.23 in 10.0 mi ENE 16.1 mph 27.6 mph N/A   Clear
8:15 PM 28.4 °F 17.5 °F 5.0 °F 37% 30.23 in 10.0 mi ENE 13.8 mph 29.9 mph N/A   Clear
8:35 PM 26.6 °F 13.8 °F 5.0 °F 40% 30.22 in 10.0 mi ENE 17.3 mph 25.3 mph N/A   Clear
8:55 PM 26.6 °F 14.3 °F 5.0 °F 40% 30.22 in 10.0 mi ENE 16.1 mph 23.0 mph N/A   Clear
9:15 PM 26.6 °F 14.3 °F 5.0 °F 40% 30.22 in 10.0 mi ENE 16.1 mph 26.5 mph N/A   Clear
9:35 PM 26.6 °F 14.7 °F 5.0 °F 40% 30.22 in 10.0 mi ENE 15.0 mph 24.2 mph N/A   Clear
9:55 PM 26.6 °F 15.7 °F 5.0 °F 40% 30.22 in 10.0 mi NE 12.7 mph 25.3 mph N/A   Clear
10:15 PM 26.6 °F 13.4 °F 3.2 °F 37% 30.21 in 10.0 mi ENE 18.4 mph 28.8 mph N/A   Clear
10:35 PM 26.6 °F 13.8 °F 3.2 °F 37% 30.21 in 10.0 mi ENE 17.3 mph 29.9 mph N/A   Clear
10:55 PM 26.6 °F 12.7 °F 5.0 °F 40% 30.20 in 10.0 mi ENE 20.7 mph 29.9 mph N/A   Clear
11:15 PM 26.6 °F 13.1 °F 3.2 °F 37% 30.20 in 10.0 mi ENE 19.6 mph 29.9 mph N/A   Clear
11:35 PM 26.6 °F 13.4 °F 3.2 °F 37% 30.19 in 10.0 mi ENE 18.4 mph 33.4 mph N/A   Clear
11:55 PM 26.6 °F 13.1 °F 3.2 °F 37% 30.18 in 10.0 mi ENE 19.6 mph 28.8 mph N/A   Clear